createdAt,value
2018-02-03T00:00:28.439Z,137.57
2018-02-03T00:02:56.099Z,135.57
2018-02-03T00:05:23.996Z,132.77
2018-02-03T00:07:51.598Z,134.00
2018-02-03T00:10:19.186Z,129.77
2018-02-03T00:12:46.747Z,127.70
2018-02-03T00:15:14.712Z,131.47
2018-02-03T00:17:42.287Z,125.70
2018-02-03T00:20:10.312Z,130.57
2018-02-03T00:22:38.038Z,125.80
2018-02-03T00:25:05.635Z,130.83
2018-02-03T00:27:33.211Z,122.57
2018-02-03T00:30:00.775Z,114.10
2018-02-03T00:32:28.416Z,115.83
2018-02-03T00:34:56.034Z,114.57
2018-02-03T00:37:23.654Z,118.27
2018-02-03T00:39:51.331Z,118.60
2018-02-03T00:42:19.579Z,113.23
2018-02-03T00:44:47.234Z,112.20
2018-02-03T00:47:15.088Z,112.73
2018-02-03T00:49:42.681Z,105.57
2018-02-03T00:52:10.287Z,105.77
2018-02-03T00:54:38.456Z,108.57
2018-02-03T00:57:07.145Z,108.67
2018-02-03T00:59:34.774Z,105.03
2018-02-03T01:02:02.513Z,107.63
2018-02-03T01:04:30.567Z,103.50
2018-02-03T01:06:58.179Z,101.33
2018-02-03T01:09:25.772Z,97.83
2018-02-03T01:11:53.342Z,103.43
2018-02-03T01:14:20.931Z,101.10
2018-02-03T01:16:48.984Z,93.37
2018-02-03T01:19:16.612Z,94.63
2018-02-03T01:21:44.290Z,95.83
2018-02-03T01:24:12.113Z,88.40
2018-02-03T01:26:40.030Z,93.03
2018-02-03T01:29:08.300Z,89.27
2018-02-03T01:31:35.873Z,92.00
2018-02-03T01:34:03.534Z,89.00
2018-02-03T01:36:31.098Z,87.53
2018-02-03T01:38:58.691Z,88.83
2018-02-03T01:41:27.153Z,85.43
2018-02-03T01:43:54.783Z,81.93
2018-02-03T01:46:22.446Z,82.53
2018-02-03T01:48:50.048Z,80.43
2018-02-03T01:51:18.427Z,80.50
2018-02-03T01:55:59.588Z,78.23
2018-02-03T02:00:42.021Z,75.50
2018-02-03T02:03:10.415Z,80.60
2018-02-03T02:05:39.312Z,75.70
2018-02-03T02:08:06.951Z,70.10
2018-02-03T02:10:34.543Z,74.83
2018-02-03T02:13:02.167Z,68.67
2018-02-03T02:15:29.793Z,70.83
2018-02-03T02:17:57.395Z,70.10
2018-02-03T02:20:25.755Z,71.37
2018-02-03T02:22:53.356Z,71.70
2018-02-03T02:25:20.983Z,68.80
2018-02-03T02:27:48.611Z,69.20
2018-02-03T02:30:16.213Z,66.33
2018-02-03T02:32:43.774Z,71.10
2018-02-03T02:35:11.351Z,66.50
2018-02-03T02:37:39.217Z,61.77
2018-02-03T02:40:06.824Z,67.57
2018-02-03T02:42:34.395Z,60.57
2018-02-03T02:45:02.092Z,61.60
2018-02-03T02:47:29.656Z,60.13
2018-02-03T02:49:57.267Z,62.70
2018-02-03T02:52:25.786Z,63.33
2018-02-03T02:54:53.351Z,68.83
2018-02-03T02:57:20.947Z,61.63
2018-02-03T02:59:48.536Z,58.67
2018-02-03T03:02:16.156Z,58.07
2018-02-03T03:04:43.926Z,60.57
2018-02-03T03:07:11.511Z,57.43
2018-02-03T03:09:39.245Z,58.27
2018-02-03T03:12:06.863Z,57.43
2018-02-03T03:14:34.439Z,62.70
2018-02-03T03:17:02.031Z,59.13
2018-02-03T03:19:29.626Z,54.13
2018-02-03T03:21:58.029Z,57.60
2018-02-03T03:24:26.358Z,53.10
2018-02-03T03:26:53.982Z,54.97
2018-02-03T03:29:21.614Z,55.73
2018-02-03T03:31:49.233Z,52.87
2018-02-03T03:34:16.845Z,54.03
2018-02-03T03:36:44.428Z,55.90
2018-02-03T03:39:12.036Z,54.53
2018-02-03T03:41:40.507Z,55.10
2018-02-03T03:44:08.839Z,53.27
2018-02-03T03:46:36.420Z,55.03
2018-02-03T03:49:03.992Z,49.17
2018-02-03T03:51:32.322Z,48.80
2018-02-03T03:54:00.049Z,50.13
2018-02-03T03:56:27.610Z,48.93
2018-02-03T03:58:55.176Z,48.93
2018-02-03T04:01:22.735Z,45.63
2018-02-03T04:03:50.346Z,47.13
2018-02-03T04:06:17.916Z,48.03
2018-02-03T04:08:45.550Z,45.67
2018-02-03T04:11:13.808Z,46.07
2018-02-03T04:13:41.407Z,46.87
2018-02-03T04:16:09.758Z,43.07
2018-02-03T04:18:37.386Z,46.73
2018-02-03T04:21:04.967Z,44.83
2018-02-03T04:23:32.637Z,43.20
2018-02-03T04:26:00.200Z,41.43
2018-02-03T04:28:27.767Z,46.40
2018-02-03T04:30:55.340Z,45.47
2018-02-03T04:33:23.040Z,42.20
2018-02-03T04:35:50.881Z,43.33
2018-02-03T04:38:19.233Z,42.27
2018-02-03T04:40:46.854Z,39.77
2018-02-03T04:43:14.466Z,41.27
2018-02-03T04:45:42.806Z,41.27
2018-02-03T04:48:10.389Z,43.10
2018-02-03T04:50:38.259Z,42.03
2018-02-03T04:53:05.873Z,41.60
2018-02-03T04:55:33.668Z,39.50
2018-02-03T04:58:01.314Z,42.37
2018-02-03T05:00:28.920Z,39.37
2018-02-03T05:02:56.667Z,38.63
2018-02-03T05:05:25.040Z,37.03
2018-02-03T05:07:53.586Z,40.87
2018-02-03T05:10:21.243Z,37.07
2018-02-03T05:12:48.849Z,37.60
2018-02-03T05:15:17.206Z,38.43
2018-02-03T05:17:44.826Z,35.57
2018-02-03T05:20:12.491Z,35.37
2018-02-03T05:22:40.064Z,36.40
2018-02-03T05:25:07.678Z,35.93
2018-02-03T05:27:35.251Z,37.80
2018-02-03T05:30:02.861Z,35.23
2018-02-03T05:32:30.455Z,36.67
2018-02-03T05:34:58.103Z,36.03
2018-02-03T05:37:25.767Z,37.70
2018-02-03T05:39:53.382Z,35.43
2018-02-03T05:42:20.963Z,34.23
2018-02-03T05:44:51.989Z,34.53
2018-02-03T05:47:19.563Z,34.13
2018-02-03T05:49:47.903Z,34.17
2018-02-03T05:52:15.575Z,30.50
2018-02-03T05:54:43.143Z,35.73
2018-02-03T05:57:10.719Z,32.63
2018-02-03T05:59:38.856Z,31.53
2018-02-03T06:02:06.464Z,32.37
2018-02-03T06:04:34.058Z,32.03
2018-02-03T06:07:01.661Z,32.80
2018-02-03T06:09:29.530Z,30.27
2018-02-03T06:11:57.265Z,33.10
2018-02-03T06:14:25.030Z,30.27
2018-02-03T06:16:52.702Z,30.77
2018-02-03T06:19:20.267Z,29.77
2018-02-03T06:21:48.618Z,31.83
2018-02-03T06:24:16.230Z,29.87
2018-02-03T06:26:43.826Z,30.27
2018-02-03T06:29:11.400Z,26.07
2018-02-03T06:31:39.318Z,28.63
2018-02-03T06:34:06.886Z,29.57
2018-02-03T06:36:34.460Z,27.57
2018-02-03T06:39:02.090Z,26.63
2018-02-03T06:41:29.974Z,26.37
2018-02-03T06:44:34.590Z,25.77
2018-02-03T06:47:02.158Z,28.00
2018-02-03T06:49:29.824Z,27.50
2018-02-03T06:51:57.390Z,25.77
2018-02-03T06:54:25.022Z,24.43
2018-02-03T06:56:52.628Z,24.90
2018-02-03T06:59:20.282Z,26.10
2018-02-03T07:01:47.892Z,24.30
2018-02-03T07:04:15.491Z,25.23
2018-02-03T07:06:43.175Z,24.60
2018-02-03T07:09:10.824Z,24.77
2018-02-03T07:11:38.598Z,24.67
2018-02-03T07:14:06.192Z,21.90
2018-02-03T07:16:33.788Z,22.03
2018-02-03T07:19:01.406Z,21.97
2018-02-03T07:21:29.025Z,21.50
2018-02-03T07:23:56.646Z,24.40
2018-02-03T07:26:24.235Z,23.73
2018-02-03T07:28:51.834Z,23.47
2018-02-03T07:31:20.215Z,23.93
2018-02-03T07:33:48.607Z,23.37
2018-02-03T07:36:16.234Z,21.23
2018-02-03T07:38:43.822Z,21.43
2018-02-03T07:41:11.466Z,22.63
2018-02-03T07:43:39.991Z,20.57
2018-02-03T07:46:07.587Z,20.43
2018-02-03T07:48:35.223Z,21.17
2018-02-03T07:51:03.467Z,20.37
2018-02-03T07:53:31.042Z,21.77
2018-02-03T07:55:58.647Z,22.77
2018-02-03T07:58:26.288Z,20.37
2018-02-03T08:00:53.899Z,21.53
2018-02-03T08:03:21.530Z,22.57
2018-02-03T08:05:49.948Z,20.47
2018-02-03T08:08:17.517Z,22.83
2018-02-03T08:10:45.769Z,20.30
2018-02-03T08:13:13.401Z,21.13
2018-02-03T08:15:41.844Z,20.97
2018-02-03T08:18:09.491Z,20.30
2018-02-03T08:20:37.120Z,19.90
2018-02-03T08:23:04.724Z,19.63
2018-02-03T08:25:34.303Z,19.40
2018-02-03T08:28:01.875Z,17.80
2018-02-03T08:30:29.535Z,20.20
2018-02-03T08:32:57.157Z,18.23
2018-02-03T08:35:24.734Z,15.70
2018-02-03T08:37:52.399Z,16.30
2018-02-03T08:40:20.038Z,16.77
2018-02-03T08:42:47.634Z,18.67
2018-02-03T08:45:15.202Z,18.43
2018-02-03T08:47:42.808Z,17.40
2018-02-03T08:50:11.159Z,17.10
2018-02-03T08:52:39.521Z,18.80
2018-02-03T08:55:07.800Z,18.13
2018-02-03T08:57:35.399Z,17.23
2018-02-03T09:00:02.982Z,18.30
2018-02-03T09:02:30.820Z,17.87
2018-02-03T09:04:58.456Z,16.30
2018-02-03T09:07:26.611Z,16.47
2018-02-03T09:09:54.202Z,15.03
2018-02-03T09:12:21.802Z,14.43
2018-02-03T09:14:49.389Z,14.97
2018-02-03T09:17:16.982Z,17.17
2018-02-03T09:19:44.554Z,16.80
2018-02-03T09:22:12.158Z,15.20
2018-02-03T09:24:39.755Z,15.30
2018-02-03T09:27:07.492Z,15.60
2018-02-03T09:29:35.093Z,15.37
2018-02-03T09:32:02.731Z,15.10
2018-02-03T09:34:31.085Z,15.53
2018-02-03T09:36:58.706Z,14.53
2018-02-03T09:39:26.265Z,15.53
2018-02-03T09:41:53.851Z,16.33
2018-02-03T09:44:21.464Z,14.00
2018-02-03T09:46:49.360Z,14.07
2018-02-03T09:49:16.931Z,14.70
2018-02-03T09:51:44.550Z,13.27
2018-02-03T09:54:12.142Z,13.63
2018-02-03T09:56:39.791Z,12.83
2018-02-03T09:59:07.370Z,13.40
2018-02-03T10:01:34.958Z,13.97
2018-02-03T10:04:02.554Z,13.53
2018-02-03T10:06:30.154Z,13.77
2018-02-03T10:08:58.020Z,14.83
2018-02-03T10:11:25.610Z,11.67
2018-02-03T10:13:53.178Z,14.90
2018-02-03T10:16:20.777Z,12.50
2018-02-03T10:18:48.429Z,13.83
2018-02-03T10:21:16.098Z,12.77
2018-02-03T10:23:43.660Z,12.60
2018-02-03T10:26:11.285Z,12.53
2018-02-03T10:28:38.953Z,13.20
2018-02-03T10:31:06.569Z,12.07
2018-02-03T10:33:34.942Z,13.63
2018-02-03T10:36:03.344Z,12.03
2018-02-03T10:38:30.931Z,12.17
2018-02-03T10:40:58.534Z,12.77
2018-02-03T10:43:26.132Z,13.07
2018-02-03T10:45:53.732Z,11.33
2018-02-03T10:48:22.224Z,12.40
2018-02-03T10:50:50.794Z,11.17
2018-02-03T10:53:18.376Z,11.87
2018-02-03T10:55:45.968Z,11.33
2018-02-03T10:58:13.710Z,11.13
2018-02-03T11:00:46.237Z,11.40
2018-02-03T11:03:13.830Z,10.83
2018-02-03T11:05:41.510Z,10.67
2018-02-03T11:08:09.142Z,11.17
2018-02-03T11:10:36.828Z,11.67
2018-02-03T11:13:04.445Z,11.40
2018-02-03T11:15:32.020Z,11.20
2018-02-03T11:18:00.442Z,11.00
2018-02-03T11:20:28.091Z,10.93
2018-02-03T11:22:55.691Z,11.33
2018-02-03T11:25:23.290Z,10.23
2018-02-03T11:27:50.977Z,11.17
2018-02-03T11:30:18.620Z,10.20
2018-02-03T11:32:46.282Z,10.67
2018-02-03T11:35:13.899Z,11.60
2018-02-03T11:37:41.533Z,11.43
2018-02-03T11:40:09.260Z,10.93
2018-02-03T11:42:36.874Z,9.90
2018-02-03T11:45:04.570Z,11.17
2018-02-03T11:47:33.177Z,10.73
2018-02-03T11:50:00.741Z,9.63
2018-02-03T11:52:29.002Z,11.07
2018-02-03T11:54:56.672Z,8.47
2018-02-03T11:57:25.056Z,9.97
2018-02-03T11:59:52.707Z,10.37
2018-02-03T12:02:20.345Z,8.03
2018-02-03T12:04:48.051Z,8.57
2018-02-03T12:07:15.706Z,9.70
2018-02-03T12:09:44.035Z,8.03
2018-02-03T12:12:11.643Z,9.80
2018-02-03T12:14:40.168Z,8.80
2018-02-03T12:17:08.548Z,8.10
2018-02-03T12:19:36.973Z,8.23
2018-02-03T12:22:04.547Z,9.20
2018-02-03T12:24:32.127Z,7.67
2018-02-03T12:26:59.687Z,8.53
2018-02-03T12:29:27.251Z,7.33
2018-02-03T12:31:55.586Z,8.23
2018-02-03T12:34:23.189Z,8.87
2018-02-03T12:36:50.880Z,8.67
2018-02-03T12:39:18.459Z,8.57
2018-02-03T12:41:46.013Z,8.30
2018-02-03T12:44:14.384Z,7.47
2018-02-03T12:46:42.792Z,7.20
2018-02-03T12:49:11.247Z,7.90
2018-02-03T12:51:39.195Z,8.07
2018-02-03T12:54:07.239Z,7.50
2018-02-03T12:56:36.434Z,8.77
2018-02-03T12:59:06.810Z,7.87
2018-02-03T13:01:35.541Z,7.60
2018-02-03T13:04:03.382Z,7.20
2018-02-03T13:06:31.006Z,7.80
2018-02-03T13:09:00.606Z,7.23
2018-02-03T13:11:28.188Z,8.40
2018-02-03T13:13:56.743Z,6.57
2018-02-03T13:16:25.295Z,7.80
2018-02-03T13:18:52.914Z,7.87
2018-02-03T13:21:20.495Z,7.30
2018-02-03T13:23:48.971Z,7.30
2018-02-03T13:26:16.567Z,6.50
2018-02-03T13:28:44.246Z,6.97
2018-02-03T13:31:14.289Z,7.47
2018-02-03T13:33:42.711Z,7.50
2018-02-03T13:36:10.351Z,7.70
2018-02-03T13:38:38.730Z,7.37
2018-02-03T13:41:07.575Z,5.97
2018-02-03T13:43:36.845Z,7.63
2018-02-03T13:46:04.834Z,7.30
2018-02-03T13:48:32.560Z,5.40
2018-02-03T13:51:00.675Z,6.17
2018-02-03T13:53:28.737Z,6.53
2018-02-03T13:55:57.148Z,7.57
2018-02-03T13:58:25.619Z,6.87
2018-02-03T14:00:53.268Z,5.50
2018-02-03T14:05:54.139Z,6.40
2018-02-03T14:08:21.814Z,6.37
2018-02-03T14:10:52.017Z,6.23
2018-02-03T14:13:19.622Z,7.40
2018-02-03T14:15:47.460Z,6.13
2018-02-03T14:18:15.202Z,6.10
2018-02-03T14:20:42.868Z,5.60
2018-02-03T14:23:11.340Z,5.27
2018-02-03T14:25:39.334Z,5.33
2018-02-03T14:28:07.017Z,5.40
2018-02-03T14:30:34.640Z,7.03
2018-02-03T14:33:02.257Z,5.60
2018-02-03T14:35:30.755Z,5.67
2018-02-03T14:37:59.678Z,6.30
2018-02-03T14:40:28.539Z,5.67
2018-02-03T14:42:56.344Z,5.90
2018-02-03T14:45:23.992Z,5.20
2018-02-03T14:47:52.422Z,5.30
2018-02-03T14:50:20.804Z,4.90
2018-02-03T14:52:49.037Z,6.23
2018-02-03T14:55:16.659Z,5.27
2018-02-03T14:57:45.020Z,5.73
2018-02-03T15:00:12.623Z,4.77
2018-02-03T15:02:40.278Z,5.57
2018-02-03T15:05:08.081Z,5.37
2018-02-03T15:07:37.736Z,4.37
2018-02-03T15:10:06.117Z,5.20
2018-02-03T15:12:33.920Z,5.20
2018-02-03T15:15:01.485Z,4.83
2018-02-03T15:17:29.087Z,4.87
2018-02-03T15:19:57.430Z,5.47
2018-02-03T15:22:25.023Z,4.80
2018-02-03T15:24:52.574Z,5.37
2018-02-03T15:27:20.299Z,5.17
2018-02-03T15:29:47.863Z,5.20
2018-02-03T15:32:15.486Z,5.47
2018-02-03T15:34:43.054Z,4.93
2018-02-03T15:37:10.725Z,4.73
2018-02-03T15:39:38.592Z,4.63
2018-02-03T15:42:06.330Z,4.87
2018-02-03T15:44:35.512Z,5.07
2018-02-03T15:47:03.149Z,4.90
2018-02-03T15:49:30.749Z,4.57
2018-02-03T15:52:00.033Z,4.60
2018-02-03T15:54:27.745Z,4.70
2018-02-03T15:56:55.324Z,4.67
2018-02-03T15:59:22.912Z,4.13
2018-02-03T16:01:50.587Z,4.47
2018-02-03T16:04:18.624Z,4.33
2018-02-03T16:06:46.268Z,4.23
2018-02-03T16:09:14.043Z,4.13
2018-02-03T16:11:42.482Z,4.33
2018-02-03T16:14:10.196Z,4.93
2018-02-03T16:16:38.827Z,4.27
2018-02-03T16:19:06.894Z,4.53
2018-02-03T16:21:34.531Z,4.40
2018-02-03T16:24:02.178Z,4.43
2018-02-03T16:26:30.534Z,4.00
2018-02-03T16:29:01.742Z,4.10
2018-02-03T16:31:30.371Z,3.40
2018-02-03T16:33:58.695Z,4.93
2018-02-03T16:36:26.941Z,5.00
2018-02-03T16:38:54.614Z,4.00
2018-02-03T16:41:22.702Z,4.97
2018-02-03T16:43:50.335Z,4.07
2018-02-03T16:46:18.821Z,3.50
2018-02-03T16:48:46.419Z,4.03
2018-02-03T16:51:13.986Z,3.97
2018-02-03T16:53:41.647Z,3.70
2018-02-03T16:56:09.219Z,4.10
2018-02-03T16:58:36.795Z,3.67
2018-02-03T17:01:05.132Z,3.47
2018-02-03T17:03:32.722Z,4.80
2018-02-03T17:06:01.226Z,3.87
2018-02-03T17:08:29.929Z,3.30
2018-02-03T17:10:59.425Z,4.03
2018-02-03T17:13:27.064Z,3.40
2018-02-03T17:16:01.029Z,3.60
2018-02-03T17:18:28.818Z,4.20
2018-02-03T17:20:56.514Z,3.70
2018-02-03T17:23:24.867Z,3.97
2018-02-03T17:25:53.308Z,4.07
2018-02-03T17:28:20.899Z,4.20
2018-02-03T17:30:48.513Z,3.97
2018-02-03T17:33:17.044Z,4.23
2018-02-03T17:35:44.615Z,3.77
2018-02-03T17:38:17.891Z,3.17
2018-02-03T17:40:45.540Z,3.33
2018-02-03T17:43:14.090Z,4.33
2018-02-03T17:45:47.405Z,4.00
2018-02-03T17:48:16.006Z,4.80
2018-02-03T17:50:44.376Z,3.83
2018-02-03T17:53:12.799Z,3.60
2018-02-03T17:55:46.126Z,4.40
2018-02-03T17:58:15.435Z,3.43
2018-02-03T18:00:43.048Z,3.20
2018-02-03T18:03:10.898Z,3.87
2018-02-03T18:05:38.571Z,3.33
2018-02-03T18:08:06.216Z,3.07
2018-02-03T18:10:33.910Z,2.77
2018-02-03T18:13:01.575Z,3.37
2018-02-03T18:15:29.203Z,3.70
2018-02-03T18:17:56.821Z,3.30
2018-02-03T18:20:24.386Z,3.53
2018-02-03T18:22:52.721Z,3.43
2018-02-03T18:25:20.355Z,3.30
2018-02-03T18:27:47.958Z,2.70
2018-02-03T18:30:15.583Z,3.00
2018-02-03T18:32:43.410Z,3.30
2018-02-03T18:35:11.836Z,3.23
2018-02-03T18:37:39.496Z,3.73
2018-02-03T18:40:07.067Z,4.10
2018-02-03T18:42:34.633Z,2.83
2018-02-03T18:45:02.203Z,2.90
2018-02-03T18:47:30.535Z,2.60
2018-02-03T18:49:58.313Z,2.53
2018-02-03T18:52:25.917Z,3.10
2018-02-03T18:54:53.616Z,3.03
2018-02-03T18:57:21.178Z,3.10
2018-02-03T18:59:49.628Z,3.17
2018-02-03T19:02:17.960Z,3.00
2018-02-03T19:04:45.838Z,2.60
2018-02-03T19:07:13.515Z,2.87
2018-02-03T19:09:41.850Z,2.77
2018-02-03T19:12:09.428Z,2.57
2018-02-03T19:14:37.064Z,3.27
2018-02-03T19:17:04.636Z,3.17
2018-02-03T19:19:32.794Z,3.10
2018-02-03T19:22:01.661Z,3.17
2018-02-03T19:24:29.751Z,2.33
2018-02-03T19:26:57.442Z,3.17
2018-02-03T19:29:25.965Z,2.70
2018-02-03T19:31:53.547Z,2.63
2018-02-03T19:37:15.339Z,2.90
2018-02-03T19:39:43.673Z,2.70
2018-02-03T19:42:11.230Z,3.13
2018-02-03T19:44:39.450Z,3.23
2018-02-03T19:47:07.820Z,2.33
2018-02-03T19:49:35.398Z,2.30
2018-02-03T19:52:03.012Z,3.53
2018-02-03T19:54:30.795Z,3.57
2018-02-03T19:59:50.142Z,2.53
2018-02-03T20:02:17.763Z,3.33
2018-02-03T20:04:45.383Z,2.40
2018-02-03T20:07:13.843Z,3.60
2018-02-03T20:09:41.401Z,2.20
2018-02-03T20:12:09.012Z,2.90
2018-02-03T20:14:36.645Z,2.40
2018-02-03T20:17:04.362Z,2.57
2018-02-03T20:19:32.000Z,2.53
2018-02-03T20:21:59.673Z,2.60
2018-02-03T20:24:27.233Z,2.30
2018-02-03T20:26:54.787Z,3.07
2018-02-03T20:29:22.487Z,2.40
2018-02-03T20:31:50.051Z,2.80
2018-02-03T20:34:17.650Z,2.20
2018-02-03T20:36:45.333Z,1.90
2018-02-03T20:39:12.936Z,2.47
2018-02-03T20:41:40.527Z,2.33
2018-02-03T20:44:08.102Z,2.43
2018-02-03T20:46:35.796Z,2.30
2018-02-03T20:49:03.430Z,2.40
2018-02-03T20:51:30.997Z,2.50
2018-02-03T20:53:58.638Z,2.93
2018-02-03T20:56:26.291Z,2.17
2018-02-03T20:58:53.900Z,2.07
2018-02-03T21:01:21.449Z,2.57
2018-02-03T21:03:52.441Z,1.97
2018-02-03T21:06:20.050Z,2.33
2018-02-03T21:08:47.776Z,2.23
2018-02-03T21:11:16.708Z,1.93
2018-02-03T21:13:46.698Z,2.30
2018-02-03T21:16:14.971Z,2.23
2018-02-03T21:18:45.021Z,2.20
2018-02-03T21:21:14.261Z,2.20
2018-02-03T21:23:43.321Z,2.03
2018-02-03T21:26:14.495Z,4.23
2018-02-03T21:28:44.222Z,2.00
2018-02-03T21:31:13.627Z,2.13
2018-02-03T21:33:42.612Z,1.90
2018-02-03T21:36:10.237Z,2.17
2018-02-03T21:38:40.487Z,2.00
2018-02-03T21:41:08.354Z,1.87
2018-02-03T21:43:36.319Z,2.60
2018-02-03T21:46:04.111Z,1.97
2018-02-03T21:48:31.964Z,2.00
2018-02-03T21:51:00.842Z,1.77
2018-02-03T21:53:30.031Z,1.70
2018-02-03T21:56:00.558Z,1.70
2018-02-03T21:58:28.801Z,2.70
2018-02-03T22:00:57.271Z,2.23
2018-02-03T22:03:25.937Z,2.23
2018-02-03T22:05:57.343Z,1.80
2018-02-03T22:08:26.027Z,1.87
2018-02-03T22:10:57.497Z,2.10
2018-02-03T22:13:26.064Z,1.90
2018-02-03T22:15:54.501Z,1.90
2018-02-03T22:18:22.892Z,2.00
2018-02-03T22:20:50.532Z,1.60
2018-02-03T22:23:19.584Z,1.70
2018-02-03T22:25:47.202Z,2.13
2018-02-03T22:28:15.811Z,1.57
2018-02-03T22:30:43.774Z,2.00
2018-02-03T22:33:12.463Z,1.90
2018-02-03T22:35:41.255Z,1.60
2018-02-03T22:38:08.932Z,1.77
2018-02-03T22:40:37.497Z,1.73
2018-02-03T22:43:07.613Z,1.70
2018-02-03T22:45:35.256Z,1.67
2018-02-03T22:48:02.940Z,1.73
2018-02-03T22:50:30.582Z,1.33
2018-02-03T22:52:58.139Z,1.60
2018-02-03T22:55:26.566Z,2.07
2018-02-03T22:57:54.931Z,1.60
2018-02-03T23:00:22.660Z,1.73
2018-02-03T23:02:55.882Z,1.63
2018-02-03T23:05:23.463Z,1.60
2018-02-03T23:07:51.066Z,1.60
2018-02-03T23:10:18.686Z,1.63
2018-02-03T23:12:47.078Z,1.80
2018-02-03T23:15:14.680Z,1.80
2018-02-03T23:17:42.310Z,1.60
2018-02-03T23:20:09.941Z,1.40
2018-02-03T23:22:38.314Z,1.80
2018-02-03T23:25:05.947Z,1.80
2018-02-03T23:27:37.476Z,1.80
2018-02-03T23:30:05.260Z,1.60
2018-02-03T23:32:32.826Z,1.37
2018-02-03T23:35:00.396Z,1.33
2018-02-03T23:37:29.490Z,1.70
2018-02-03T23:39:57.404Z,1.40
2018-02-03T23:42:25.012Z,3.60
2018-02-03T23:44:53.460Z,2.23
2018-02-03T23:47:21.100Z,1.93
2018-02-03T23:49:48.670Z,1.83
2018-02-03T23:52:16.338Z,1.50
2018-02-03T23:54:43.979Z,2.30
2018-02-03T23:57:11.638Z,1.50
2018-02-03T23:59:39.241Z,1.60
